createdAt,value
2023-12-08T00:01:13.601Z,9.4
2023-12-08T00:03:13.282Z,9.2
2023-12-08T00:05:12.889Z,9.4
2023-12-08T00:07:12.590Z,9.2
2023-12-08T00:09:12.236Z,10.4
2023-12-08T00:11:11.902Z,9.3
2023-12-08T00:13:11.501Z,8.6
2023-12-08T00:15:11.260Z,8.8
2023-12-08T00:17:10.862Z,8.5
2023-12-08T00:19:10.651Z,8.6
2023-12-08T00:21:10.245Z,7.8
2023-12-08T00:23:09.820Z,10.1
2023-12-08T00:25:09.550Z,8.4
2023-12-08T00:27:09.211Z,10.2
2023-12-08T00:29:08.878Z,9.4
2023-12-08T00:31:08.503Z,8.9
2023-12-08T00:33:08.241Z,8.7
2023-12-08T00:35:07.882Z,8.3
2023-12-08T00:37:07.539Z,9.9
2023-12-08T00:39:07.271Z,8.8
2023-12-08T00:41:06.806Z,9
2023-12-08T00:43:06.511Z,8.8
2023-12-08T00:45:06.221Z,8.4
2023-12-08T00:47:05.909Z,8.9
2023-12-08T00:49:05.578Z,9.7
2023-12-08T00:51:05.178Z,8.3
2023-12-08T00:53:04.784Z,11.1
2023-12-08T00:55:04.418Z,10.6
2023-12-08T00:57:04.268Z,10.7
2023-12-08T00:59:03.835Z,13.4
2023-12-08T01:01:03.635Z,8.7
2023-12-08T01:03:03.193Z,10.6
2023-12-08T01:05:02.772Z,10.3
2023-12-08T01:07:02.503Z,8.5
2023-12-08T01:09:02.117Z,10.3
2023-12-08T01:11:01.815Z,10.1
2023-12-08T01:13:01.432Z,11.1
2023-12-08T01:15:01.127Z,9.4
2023-12-08T01:17:00.786Z,10.9
2023-12-08T01:19:00.716Z,7.9
2023-12-08T01:21:00.138Z,7.6
2023-12-08T01:22:59.776Z,8.7
2023-12-08T01:24:59.407Z,9.7
2023-12-08T01:26:59.074Z,8.6
2023-12-08T01:28:58.714Z,9.2
2023-12-08T01:30:58.403Z,9.7
2023-12-08T01:32:58.134Z,10.5
2023-12-08T01:34:57.755Z,9.1
2023-12-08T01:36:57.453Z,8.9
2023-12-08T01:38:57.028Z,8.3
2023-12-08T01:40:56.714Z,8.4
2023-12-08T01:42:56.361Z,7.8
2023-12-08T01:44:56.002Z,8.7
2023-12-08T01:46:55.645Z,8.1
2023-12-08T01:48:55.391Z,7.7
2023-12-08T01:50:55.018Z,7.6
2023-12-08T01:52:54.625Z,8.6
2023-12-08T01:54:54.285Z,8.4
2023-12-08T01:56:53.953Z,7.1
2023-12-08T01:58:53.612Z,8.6
2023-12-08T02:00:53.315Z,7.7
2023-12-08T02:02:52.979Z,7.2
2023-12-08T02:04:52.765Z,7.5
2023-12-08T02:06:52.225Z,7.1
2023-12-08T02:08:51.900Z,7.9
2023-12-08T02:10:51.559Z,7.5
2023-12-08T02:12:51.168Z,7.6
2023-12-08T02:14:50.911Z,8.1
2023-12-08T02:16:50.485Z,8.1
2023-12-08T02:18:50.359Z,9
2023-12-08T02:20:49.847Z,8.6
2023-12-08T02:22:49.429Z,8
2023-12-08T02:24:49.116Z,9
2023-12-08T02:26:48.801Z,7.7
2023-12-08T02:28:48.398Z,8.5
2023-12-08T02:30:48.089Z,8.1
2023-12-08T02:32:47.799Z,8.2
2023-12-08T02:34:47.465Z,7.9
2023-12-08T02:36:47.126Z,8.2
2023-12-08T02:38:46.726Z,8.2
2023-12-08T02:40:46.419Z,7.8
2023-12-08T02:42:46.079Z,7.3
2023-12-08T02:44:45.813Z,7.4
2023-12-08T02:46:45.382Z,8.5
2023-12-08T02:48:54.084Z,6.7
2023-12-08T02:50:44.708Z,8.3
2023-12-08T02:52:44.354Z,8.5
2023-12-08T02:54:43.975Z,7.7
2023-12-08T02:56:43.698Z,8.4
2023-12-08T02:58:43.284Z,8.7
2023-12-08T03:00:43.012Z,7.5
2023-12-08T03:02:42.616Z,7.6
2023-12-08T03:04:42.380Z,7.7
2023-12-08T03:06:41.871Z,7.8
2023-12-08T03:08:41.657Z,7.5
2023-12-08T03:10:41.179Z,7.5
2023-12-08T03:12:40.914Z,8.7
2023-12-08T03:14:40.616Z,8
2023-12-08T03:16:40.191Z,7
2023-12-08T03:18:40.089Z,8.3
2023-12-08T03:20:39.568Z,9.1
2023-12-08T03:22:39.156Z,7.9
2023-12-08T03:24:38.829Z,8.4
2023-12-08T03:26:38.581Z,8.3
2023-12-08T03:28:38.136Z,8.3
2023-12-08T03:30:37.884Z,9.1
2023-12-08T03:32:37.688Z,9.3
2023-12-08T03:34:37.195Z,9.2
2023-12-08T03:36:36.771Z,8.6
2023-12-08T03:38:36.519Z,9.4
2023-12-08T03:40:36.139Z,10.5
2023-12-08T03:42:35.796Z,9.8
2023-12-08T03:44:35.529Z,9.9
2023-12-08T03:46:35.117Z,10.6
2023-12-08T03:48:34.944Z,9.4
2023-12-08T03:50:34.450Z,10.9
2023-12-08T03:52:34.135Z,10.7
2023-12-08T03:54:33.736Z,11.1
2023-12-08T03:56:33.489Z,12.5
2023-12-08T03:58:33.047Z,11.3
2023-12-08T04:00:49.737Z,10.8
2023-12-08T04:01:29.837Z,10.8
2023-12-08T04:02:09.954Z,10.8
2023-12-08T04:02:32.583Z,11.2
2023-12-08T04:04:32.166Z,12.5
2023-12-08T04:06:31.871Z,10.6
2023-12-08T04:08:31.430Z,11.8
2023-12-08T04:10:31.122Z,13.5
2023-12-08T04:12:30.766Z,13.4
2023-12-08T04:14:30.468Z,13.9
2023-12-08T04:16:30.129Z,12.4
2023-12-08T04:18:29.878Z,14
2023-12-08T04:20:29.516Z,12.8
2023-12-08T04:22:29.092Z,12.9
2023-12-08T04:24:28.765Z,12
2023-12-08T04:26:28.396Z,13.6
2023-12-08T04:28:28.129Z,12.6
2023-12-08T04:30:27.709Z,12.1
2023-12-08T04:32:29.891Z,11.3
2023-12-08T04:34:27.228Z,13.4
2023-12-08T04:36:26.720Z,11.9
2023-12-08T04:38:26.418Z,13.5
2023-12-08T04:40:26.082Z,14.2
2023-12-08T04:42:25.712Z,14.1
2023-12-08T04:44:25.324Z,15.1
2023-12-08T04:46:24.951Z,15.5
2023-12-08T04:48:24.859Z,15.4
2023-12-08T04:50:24.277Z,16.4
2023-12-08T04:52:23.957Z,13.8
2023-12-08T04:54:23.601Z,14.5
2023-12-08T04:56:23.259Z,14.7
2023-12-08T04:58:22.980Z,14.3
2023-12-08T05:00:22.560Z,15.4
2023-12-08T05:02:22.268Z,15.2
2023-12-08T05:04:21.892Z,14
2023-12-08T05:06:21.681Z,14.3
2023-12-08T05:08:21.218Z,15.8
2023-12-08T05:10:20.934Z,14.3
2023-12-08T05:12:20.562Z,14.5
2023-12-08T05:14:20.199Z,14.3
2023-12-08T05:16:19.817Z,14.2
2023-12-08T05:18:19.663Z,14.4
2023-12-08T05:20:19.119Z,14.7
2023-12-08T05:22:18.833Z,15.3
2023-12-08T05:24:18.494Z,14.6
2023-12-08T05:26:18.093Z,14.8
2023-12-08T05:28:18.660Z,15.3
2023-12-08T05:30:17.493Z,14
2023-12-08T05:32:17.060Z,15.3
2023-12-08T05:34:16.831Z,15.2
2023-12-08T05:36:16.407Z,16.1
2023-12-08T05:38:16.077Z,15.9
2023-12-08T05:40:15.746Z,16.2
2023-12-08T05:42:15.381Z,15.5
2023-12-08T05:44:14.996Z,15.5
2023-12-08T05:46:14.698Z,14.9
2023-12-08T05:48:14.474Z,15.1
2023-12-08T05:50:14.003Z,16.1
2023-12-08T05:52:13.647Z,15.3
2023-12-08T05:54:13.385Z,15.8
2023-12-08T05:56:12.973Z,15.9
2023-12-08T05:58:12.635Z,17.9
2023-12-08T06:00:12.512Z,18.9
2023-12-08T06:02:11.931Z,16.8
2023-12-08T06:04:11.643Z,18.7
2023-12-08T06:06:11.467Z,17.4
2023-12-08T06:08:10.960Z,17.8
2023-12-08T06:10:10.610Z,16.5
2023-12-08T06:12:10.349Z,18.4
2023-12-08T06:14:09.902Z,17.9
2023-12-08T06:16:09.592Z,18.6
2023-12-08T06:18:09.374Z,16.1
2023-12-08T06:20:08.896Z,18.1
2023-12-08T06:22:08.588Z,17.6
2023-12-08T06:24:08.232Z,20.4
2023-12-08T06:26:07.925Z,17.9
2023-12-08T06:28:07.550Z,15.7
2023-12-08T06:30:07.290Z,17.3
2023-12-08T06:32:06.888Z,16.6
2023-12-08T06:34:13.600Z,18.8
2023-12-08T06:36:06.276Z,15.6
2023-12-08T06:38:05.856Z,16.5
2023-12-08T06:40:05.580Z,13.9
2023-12-08T06:42:05.272Z,15.1
2023-12-08T06:44:04.877Z,15.4
2023-12-08T06:46:04.584Z,15.7
2023-12-08T06:48:04.458Z,16.3
2023-12-08T06:50:03.888Z,19
2023-12-08T06:52:03.560Z,17.2
2023-12-08T06:54:03.277Z,15.9
2023-12-08T06:56:02.885Z,16.8
2023-12-08T06:58:02.597Z,17.2
2023-12-08T07:00:02.468Z,18.6
2023-12-08T07:02:01.908Z,18.6
2023-12-08T07:04:01.589Z,17.6
2023-12-08T07:06:01.226Z,18.2
2023-12-08T07:08:00.933Z,18.2
2023-12-08T07:10:00.542Z,16.6
2023-12-08T07:12:00.270Z,16.7
2023-12-08T07:13:59.883Z,17.7
2023-12-08T07:15:59.571Z,20.1
2023-12-08T07:17:59.438Z,20.6
2023-12-08T07:19:58.955Z,19.8
2023-12-08T07:21:58.615Z,18
2023-12-08T07:23:58.280Z,18.4
2023-12-08T07:25:57.909Z,16.9
2023-12-08T07:27:57.514Z,21.6
2023-12-08T07:29:57.254Z,23.3
2023-12-08T07:31:56.896Z,22.2
2023-12-08T07:33:56.625Z,23.6
2023-12-08T07:35:56.340Z,26.3
2023-12-08T07:37:55.900Z,23
2023-12-08T07:39:55.520Z,24.6
2023-12-08T07:41:55.163Z,22.9
2023-12-08T07:43:54.865Z,21.6
2023-12-08T07:45:54.514Z,17.7
2023-12-08T07:47:54.399Z,18.7
2023-12-08T07:49:54.079Z,19.4
2023-12-08T07:51:53.477Z,31.1
2023-12-08T07:53:53.305Z,19.4
2023-12-08T07:55:52.814Z,16.6
2023-12-08T07:57:52.466Z,20.4
2023-12-08T07:59:53.389Z,17.3
2023-12-08T08:01:51.781Z,19
2023-12-08T08:03:51.542Z,19.2
2023-12-08T08:05:51.181Z,22.6
2023-12-08T08:07:50.801Z,18.9
2023-12-08T08:09:50.478Z,19.1
2023-12-08T08:11:50.186Z,17.4
2023-12-08T08:13:49.840Z,16.9
2023-12-08T08:15:49.445Z,18.6
2023-12-08T08:17:49.273Z,18.2
2023-12-08T08:19:48.819Z,18.6
2023-12-08T08:22:26.887Z,18.2
2023-12-08T08:23:48.226Z,14.9
2023-12-08T08:25:47.766Z,15.3
2023-12-08T08:27:47.460Z,13.8
2023-12-08T08:29:47.111Z,15.5
2023-12-08T08:31:46.764Z,18.6
2023-12-08T08:33:46.784Z,15.7
2023-12-08T08:35:46.139Z,18.1
2023-12-08T08:37:45.781Z,15.2
2023-12-08T08:39:45.497Z,21.6
2023-12-08T08:41:45.113Z,18.1
2023-12-08T08:43:44.846Z,19.7
2023-12-08T08:45:44.488Z,20.8
2023-12-08T08:47:44.315Z,14.3
2023-12-08T08:49:43.971Z,12.6
2023-12-08T08:51:43.466Z,14.8
2023-12-08T08:53:43.153Z,14.4
2023-12-08T08:55:42.847Z,15.1
2023-12-08T08:57:42.467Z,20.2
2023-12-08T08:59:42.169Z,13.3
2023-12-08T09:01:41.827Z,17.2
2023-12-08T09:03:41.550Z,12.6
2023-12-08T09:05:41.265Z,13.9
2023-12-08T09:07:40.857Z,12.8
2023-12-08T09:09:43.714Z,14.5
2023-12-08T09:11:40.236Z,11.8
2023-12-08T09:13:39.926Z,10.8
2023-12-08T09:15:39.525Z,13.9
2023-12-08T09:17:39.331Z,11
2023-12-08T09:19:38.913Z,12.3
2023-12-08T09:21:45.983Z,13.9
2023-12-08T09:23:38.298Z,13
2023-12-08T09:25:38.031Z,10.3
2023-12-08T09:27:38.023Z,11.2
2023-12-08T09:29:37.910Z,11.8
2023-12-08T09:31:36.847Z,13.5
2023-12-08T09:33:36.768Z,12.3
2023-12-08T09:35:36.244Z,13.4
2023-12-08T09:37:37.482Z,11.7
2023-12-08T09:39:35.529Z,13.7
2023-12-08T09:41:35.208Z,13.5
2023-12-08T09:43:34.911Z,12.9
2023-12-08T09:45:34.626Z,13.3
2023-12-08T09:47:34.221Z,13.6
2023-12-08T09:49:33.998Z,15.6
2023-12-08T09:51:33.568Z,104.5
2023-12-08T09:53:33.270Z,20
2023-12-08T09:55:32.905Z,16.6
2023-12-08T09:57:32.612Z,16.3
2023-12-08T09:59:32.622Z,20.7
2023-12-08T10:01:31.887Z,12.7
2023-12-08T10:03:31.712Z,38.3
2023-12-08T10:05:31.223Z,28
2023-12-08T10:07:30.906Z,19.2
2023-12-08T10:09:30.555Z,11.5
2023-12-08T10:11:30.242Z,15
2023-12-08T10:13:29.875Z,15
2023-12-08T10:15:29.563Z,14.3
2023-12-08T10:17:29.463Z,11.7
2023-12-08T10:19:29.001Z,26.7
2023-12-08T10:21:28.485Z,14
2023-12-08T10:23:28.211Z,13.6
2023-12-08T10:25:27.909Z,12.4
2023-12-08T10:27:27.747Z,10.7
2023-12-08T10:29:27.198Z,14.3
2023-12-08T10:31:26.854Z,14.1
2023-12-08T10:33:26.664Z,15.9
2023-12-08T10:35:26.364Z,21
2023-12-08T10:37:26.055Z,16.5
2023-12-08T10:39:25.508Z,23.9
2023-12-08T10:41:25.169Z,12.2
2023-12-08T10:43:24.863Z,14.3
2023-12-08T10:45:24.636Z,22.3
2023-12-08T10:49:23.895Z,12.4
2023-12-08T10:51:23.543Z,20.9
2023-12-08T10:53:23.182Z,13
2023-12-08T10:55:22.882Z,20.2
2023-12-08T10:57:22.581Z,24.6
2023-12-08T10:59:22.222Z,16.5
2023-12-08T11:01:23.729Z,19.9
2023-12-08T11:03:21.859Z,37.8
2023-12-08T11:05:21.163Z,17.1
2023-12-08T11:07:21.033Z,29.6
2023-12-08T11:09:20.545Z,48.1
2023-12-08T11:11:20.479Z,20.9
2023-12-08T11:13:19.841Z,14.2
2023-12-08T11:15:19.638Z,22.9
2023-12-08T11:17:19.250Z,40.4
2023-12-08T11:19:20.301Z,22.3
2023-12-08T11:21:18.609Z,13.7
2023-12-08T11:23:18.303Z,28.6
2023-12-08T11:25:17.902Z,22.1
2023-12-08T11:27:17.714Z,21.1
2023-12-08T11:29:17.321Z,16.1
2023-12-08T11:31:17.093Z,15.9
2023-12-08T11:33:16.735Z,38.3
2023-12-08T11:35:16.294Z,51.2
2023-12-08T11:37:16.022Z,27.8
2023-12-08T11:39:15.803Z,18.9
2023-12-08T11:41:15.343Z,15.5
2023-12-08T11:43:15.030Z,18.2
2023-12-08T11:45:14.793Z,18.5
2023-12-08T11:47:14.358Z,14.2
2023-12-08T11:49:14.233Z,13.6
2023-12-08T11:51:13.768Z,12.3
2023-12-08T11:53:13.387Z,16.4
2023-12-08T11:55:17.082Z,31.9
2023-12-08T11:57:12.777Z,18.2
2023-12-08T11:59:12.409Z,17
2023-12-08T12:01:12.105Z,19.1
2023-12-08T12:03:11.829Z,27.5
2023-12-08T12:05:11.526Z,28.7
2023-12-08T12:07:11.094Z,30.2
2023-12-08T12:09:10.877Z,32.2
2023-12-08T12:11:10.466Z,33.2
2023-12-08T12:13:10.121Z,38.2
2023-12-08T12:15:09.889Z,54
2023-12-08T12:17:09.549Z,19.8
2023-12-08T12:19:09.373Z,17.9
2023-12-08T12:21:08.890Z,23.8
2023-12-08T12:23:08.547Z,26.6
2023-12-08T12:25:08.198Z,40.1
2023-12-08T12:27:07.868Z,17.6
2023-12-08T12:29:07.526Z,19
2023-12-08T12:31:07.179Z,31.7
2023-12-08T12:33:06.945Z,18.4
2023-12-08T12:35:06.617Z,23.4
2023-12-08T12:37:06.192Z,16.1
2023-12-08T12:39:05.913Z,23.4
2023-12-08T12:41:05.587Z,43.4
2023-12-08T12:43:05.211Z,36.8
2023-12-08T12:45:04.923Z,17.2
2023-12-08T12:47:04.600Z,13.1
2023-12-08T12:49:04.333Z,12.8
2023-12-08T12:51:03.934Z,15.3
2023-12-08T12:53:03.617Z,16.9
2023-12-08T12:55:03.251Z,24.2
2023-12-08T12:57:03.987Z,21.1
2023-12-08T12:59:02.606Z,32.2
2023-12-08T13:01:02.310Z,71.2
2023-12-08T13:03:03.666Z,39.3
2023-12-08T13:05:01.602Z,24.3
2023-12-08T13:07:01.231Z,36.1
2023-12-08T13:09:00.966Z,53.4
2023-12-08T13:11:00.635Z,115
2023-12-08T13:13:00.277Z,64
2023-12-08T13:15:03.827Z,18.2
2023-12-08T13:16:59.599Z,67.3
2023-12-08T13:18:59.498Z,86.9
2023-12-08T13:20:58.986Z,67.9
2023-12-08T13:22:58.597Z,21.8
2023-12-08T13:24:58.304Z,19.8
2023-12-08T13:26:57.945Z,12.5
2023-12-08T13:28:57.620Z,12.2
2023-12-08T13:30:57.265Z,12.8
2023-12-08T13:32:57.254Z,11.9
2023-12-08T13:34:56.632Z,12.6
2023-12-08T13:36:56.222Z,13.4
2023-12-08T13:38:55.932Z,14
2023-12-08T13:40:55.576Z,13.9
2023-12-08T13:42:55.255Z,13.5
2023-12-08T13:44:54.906Z,12.1
2023-12-08T13:46:54.563Z,12.5
2023-12-08T13:48:54.513Z,11.6
2023-12-08T13:51:01.758Z,13.4
2023-12-08T13:52:53.591Z,11.3
2023-12-08T13:54:53.292Z,12.2
2023-12-08T13:56:52.942Z,13
2023-12-08T13:58:52.622Z,11.6
2023-12-08T14:00:52.408Z,13.7
2023-12-08T14:02:52.034Z,22.9
2023-12-08T14:04:51.717Z,54.4
2023-12-08T14:06:51.275Z,59.3
2023-12-08T14:08:50.951Z,39.3
2023-12-08T14:10:50.687Z,26.3
2023-12-08T14:12:50.283Z,30.2
2023-12-08T14:14:50.059Z,30.3
2023-12-08T14:16:49.647Z,31.2
2023-12-08T14:18:49.407Z,32.6
2023-12-08T14:20:49.002Z,28.6
2023-12-08T14:22:48.725Z,39.3
2023-12-08T14:24:48.304Z,32.1
2023-12-08T14:26:48.049Z,34.1
2023-12-08T14:28:47.688Z,49.1
2023-12-08T14:30:47.495Z,41.7
2023-12-08T14:32:47.143Z,29.3
2023-12-08T14:34:46.800Z,35.6
2023-12-08T14:36:46.658Z,32.8
2023-12-08T14:38:46.444Z,30.9
2023-12-08T14:40:46.805Z,28.6
2023-12-08T14:42:45.362Z,31.5
2023-12-08T14:44:45.086Z,35.7
2023-12-08T14:46:44.742Z,28.5
2023-12-08T14:48:44.562Z,28.6
2023-12-08T14:50:44.126Z,28.6
2023-12-08T14:52:43.801Z,22.7
2023-12-08T14:54:43.540Z,20.1
2023-12-08T14:56:43.141Z,18.5
2023-12-08T14:58:42.797Z,17.5
2023-12-08T15:00:42.607Z,16
2023-12-08T15:02:42.301Z,19.8
2023-12-08T15:04:41.899Z,18.4
2023-12-08T15:06:41.615Z,16
2023-12-08T15:08:41.414Z,16.5
2023-12-08T15:10:40.825Z,28.9
2023-12-08T15:12:40.530Z,25
2023-12-08T15:14:40.174Z,14.5
2023-12-08T15:16:39.831Z,14
2023-12-08T15:18:39.643Z,14.4
2023-12-08T15:20:39.218Z,12.6
2023-12-08T15:22:38.874Z,16.1
2023-12-08T15:24:38.590Z,14.3
2023-12-08T15:26:38.272Z,15.1
2023-12-08T15:28:37.993Z,13.8
2023-12-08T15:30:37.632Z,13.6
2023-12-08T15:32:37.354Z,14.2
2023-12-08T15:34:37.008Z,17.2
2023-12-08T15:36:36.729Z,16.8
2023-12-08T15:38:36.326Z,19.4
2023-12-08T15:40:36.015Z,18
2023-12-08T15:42:35.720Z,19.5
2023-12-08T15:44:35.413Z,20.1
2023-12-08T15:46:35.100Z,22.3
2023-12-08T15:48:34.971Z,18.4
2023-12-08T15:50:34.462Z,19.5
2023-12-08T15:52:34.076Z,18
2023-12-08T15:54:33.772Z,17.2
2023-12-08T15:56:33.472Z,16.7
2023-12-08T15:58:33.159Z,15
2023-12-08T16:00:32.816Z,14.6
2023-12-08T16:02:32.499Z,14.9
2023-12-08T16:04:32.181Z,13.6
2023-12-08T16:06:31.903Z,11.4
2023-12-08T16:08:31.491Z,14.1
2023-12-08T16:10:31.241Z,14.4
2023-12-08T16:12:31.330Z,13.2
2023-12-08T16:14:30.552Z,14.2
2023-12-08T16:16:30.206Z,17.9
2023-12-08T16:18:30.074Z,15.6
2023-12-08T16:20:29.563Z,21.7
2023-12-08T16:22:29.503Z,17.5
2023-12-08T16:24:28.992Z,15.6
2023-12-08T16:26:28.605Z,15.9
2023-12-08T16:28:28.251Z,15.1
2023-12-08T16:30:28.022Z,15.1
2023-12-08T16:32:28.158Z,12.6
2023-12-08T16:34:27.361Z,16
2023-12-08T16:36:26.998Z,17.5
2023-12-08T16:38:26.643Z,22.7
2023-12-08T16:40:26.306Z,15.2
2023-12-08T16:42:26.263Z,12.7
2023-12-08T16:44:25.726Z,13.6
2023-12-08T16:46:25.334Z,14.3
2023-12-08T16:48:25.207Z,14.9
2023-12-08T16:50:24.728Z,14.3
2023-12-08T16:52:24.470Z,12.8
2023-12-08T16:54:24.096Z,14.4
2023-12-08T16:56:26.107Z,13.4
2023-12-08T16:58:23.451Z,13.3
2023-12-08T17:00:23.183Z,15.3
2023-12-08T17:02:22.787Z,15
2023-12-08T17:04:22.510Z,20.4
2023-12-08T17:06:22.197Z,35
2023-12-08T17:08:22.278Z,38
2023-12-08T17:10:21.539Z,40.2
2023-12-08T17:12:21.224Z,41.3
2023-12-08T17:14:20.813Z,57.4
2023-12-08T17:16:20.480Z,60.9
2023-12-08T17:18:20.380Z,51.5
2023-12-08T17:20:19.860Z,43.8
2023-12-08T17:22:19.550Z,44
2023-12-08T17:24:19.259Z,37
2023-12-08T17:26:25.382Z,36.5
2023-12-08T17:28:18.548Z,36.1
2023-12-08T17:30:18.288Z,33.2
2023-12-08T17:32:17.942Z,39.3
2023-12-08T17:34:22.189Z,78.4
2023-12-08T17:36:17.253Z,39.9
2023-12-08T17:38:18.028Z,44.2
2023-12-08T17:40:16.625Z,34.8
2023-12-08T17:42:16.323Z,34.5
2023-12-08T17:44:15.990Z,32.6
2023-12-08T17:46:15.597Z,32.6
2023-12-08T17:48:15.545Z,30.3
2023-12-08T17:50:14.938Z,33.9
2023-12-08T17:52:14.607Z,32.1
2023-12-08T17:54:14.365Z,32.4
2023-12-08T17:56:13.900Z,32.1
2023-12-08T17:58:13.637Z,33.5
2023-12-08T18:00:13.296Z,35.5
2023-12-08T18:02:12.895Z,36.9
2023-12-08T18:04:12.643Z,36.1
2023-12-08T18:06:12.324Z,35.3
2023-12-08T18:08:15.634Z,33.8
2023-12-08T18:10:11.579Z,31.1
2023-12-08T18:12:11.276Z,31.3
2023-12-08T18:14:10.988Z,31.8
2023-12-08T18:16:10.588Z,32.1
2023-12-08T18:18:10.381Z,30.5
2023-12-08T18:20:09.897Z,31.4
2023-12-08T18:22:09.568Z,32.4
2023-12-08T18:24:09.263Z,31.7
2023-12-08T18:26:08.891Z,34.9
2023-12-08T18:28:27.934Z,46.1
2023-12-08T18:30:08.243Z,47.8
2023-12-08T18:32:07.909Z,52.8
2023-12-08T18:34:07.640Z,68
2023-12-08T18:36:07.191Z,67.3
2023-12-08T18:38:06.834Z,61.2
2023-12-08T18:40:06.580Z,64.6
2023-12-08T18:42:06.184Z,75.1
2023-12-08T18:44:05.786Z,70.6
2023-12-08T18:46:05.483Z,61.9
2023-12-08T18:48:05.201Z,51.1
2023-12-08T18:50:04.865Z,45.4
2023-12-08T18:52:04.379Z,46.1
2023-12-08T18:54:04.168Z,42.1
2023-12-08T18:56:03.763Z,45.3
2023-12-08T18:58:03.404Z,43.5
2023-12-08T19:00:03.163Z,42.9
2023-12-08T19:02:02.697Z,45.4
2023-12-08T19:04:02.487Z,47.5
2023-12-08T19:06:02.038Z,46.3
2023-12-08T19:08:01.712Z,44.4
2023-12-08T19:10:01.353Z,57.6
2023-12-08T19:12:04.062Z,59.6
2023-12-08T19:14:00.652Z,55.5
2023-12-08T19:16:00.346Z,54.4
2023-12-08T19:18:00.081Z,84.8
2023-12-08T19:19:59.648Z,78.2
2023-12-08T19:21:59.266Z,68.3
2023-12-08T19:23:58.893Z,64.9
2023-12-08T19:25:58.545Z,65.7
2023-12-08T19:27:58.219Z,76
2023-12-08T19:29:57.959Z,70.1
2023-12-08T19:31:57.584Z,65.7
2023-12-08T19:33:57.234Z,70.2
2023-12-08T19:35:56.848Z,71.7
2023-12-08T19:37:56.715Z,68.5
2023-12-08T19:39:56.128Z,70.8
2023-12-08T19:41:55.798Z,73.7
2023-12-08T19:43:55.440Z,75.8
2023-12-08T19:45:55.033Z,76.6
2023-12-08T19:47:54.905Z,74.3
2023-12-08T19:49:54.423Z,75.4
2023-12-08T19:51:54.035Z,74.7
2023-12-08T19:53:53.732Z,73.4
2023-12-08T19:55:53.290Z,74.3
2023-12-08T19:57:52.945Z,79.5
2023-12-08T19:59:52.820Z,85.3
2023-12-08T20:01:52.175Z,96.4
2023-12-08T20:03:52.013Z,85.7
2023-12-08T20:05:51.595Z,80.1
2023-12-08T20:07:51.176Z,84.2
2023-12-08T20:09:50.804Z,85.2
2023-12-08T20:11:50.508Z,87.3
2023-12-08T20:13:50.137Z,84.1
2023-12-08T20:15:49.744Z,87.6
2023-12-08T20:17:49.501Z,85.4
2023-12-08T20:19:51.875Z,82.2
2023-12-08T20:21:48.621Z,85
2023-12-08T20:23:48.361Z,82.3
2023-12-08T20:25:47.914Z,78
2023-12-08T20:27:47.919Z,83.2
2023-12-08T20:29:47.258Z,83.7
2023-12-08T20:31:46.836Z,81.6
2023-12-08T20:33:46.650Z,80.9
2023-12-08T20:35:46.162Z,83.1
2023-12-08T20:37:45.742Z,80.3
2023-12-08T20:39:45.407Z,80.9
2023-12-08T20:41:45.048Z,82.1
2023-12-08T20:43:44.651Z,81.1
2023-12-08T20:45:44.295Z,80.4
2023-12-08T20:47:44.033Z,85.8
2023-12-08T20:49:43.774Z,86.9
2023-12-08T20:51:43.209Z,83.2
2023-12-08T20:53:42.843Z,86
2023-12-08T20:55:42.484Z,86.9
2023-12-08T20:57:42.135Z,94.5
2023-12-08T20:59:41.710Z,91.7
2023-12-08T21:01:41.421Z,91.5
2023-12-08T21:03:41.143Z,89.2
2023-12-08T21:05:40.680Z,96.5
2023-12-08T21:07:40.416Z,90.2
2023-12-08T21:09:39.924Z,86.4
2023-12-08T21:11:39.542Z,83.5
2023-12-08T21:13:39.172Z,84.1
2023-12-08T21:15:38.896Z,84.4
2023-12-08T21:17:38.452Z,84.5
2023-12-08T21:19:38.131Z,81.2
2023-12-08T21:21:37.956Z,85.4
2023-12-08T21:23:37.346Z,92.9
2023-12-08T21:25:36.969Z,83
2023-12-08T21:27:36.628Z,86.6
2023-12-08T21:29:36.278Z,81.4
2023-12-08T21:31:35.895Z,88.4
2023-12-08T21:33:35.661Z,91.3
2023-12-08T21:35:35.220Z,86.7
2023-12-08T21:37:34.804Z,88.9
2023-12-08T21:39:34.508Z,85.6
2023-12-08T21:41:34.097Z,78.8
2023-12-08T21:43:33.716Z,66.6
2023-12-08T21:45:33.400Z,73.9
2023-12-08T21:47:33.081Z,64.3
2023-12-08T21:49:32.705Z,66.8
2023-12-08T21:51:32.290Z,56.5
2023-12-08T21:53:31.856Z,50.5
2023-12-08T21:55:31.546Z,70.3
2023-12-08T21:57:31.420Z,41.5
2023-12-08T21:59:30.787Z,56.8
2023-12-08T22:01:30.537Z,45.5
2023-12-08T22:03:30.207Z,31.2
2023-12-08T22:05:29.768Z,38.6
2023-12-08T22:07:29.448Z,34.2
2023-12-08T22:09:29.064Z,36.3
2023-12-08T22:11:28.632Z,39
2023-12-08T22:13:28.283Z,39.1
2023-12-08T22:15:28.074Z,41.1
2023-12-08T22:17:27.821Z,43.1
2023-12-08T22:19:27.328Z,41.2
2023-12-08T22:21:26.830Z,39.7
2023-12-08T22:23:26.447Z,37.5
2023-12-08T22:25:26.109Z,40.6
2023-12-08T22:27:25.989Z,38.6
2023-12-08T22:29:25.366Z,33.6
2023-12-08T22:31:25.052Z,32.3
2023-12-08T22:33:24.741Z,31.2
2023-12-08T22:35:24.277Z,32.9
2023-12-08T22:37:24.175Z,32.8
2023-12-08T22:39:23.635Z,30.1
2023-12-08T22:41:23.159Z,28.1
2023-12-08T22:43:22.846Z,29.5
2023-12-08T22:45:22.481Z,27.8
2023-12-08T22:47:22.145Z,28.5
2023-12-08T22:49:21.787Z,28.9
2023-12-08T22:51:29.592Z,29
2023-12-08T22:53:20.980Z,26.4
2023-12-08T22:55:20.646Z,25.6
2023-12-08T22:57:20.321Z,28.1
2023-12-08T22:59:19.877Z,27.1
2023-12-08T23:01:19.535Z,24.6
2023-12-08T23:03:19.266Z,25.8
2023-12-08T23:05:18.814Z,24.8
2023-12-08T23:07:18.422Z,26.1
2023-12-08T23:09:18.206Z,23.6
2023-12-08T23:11:17.738Z,24.3
2023-12-08T23:13:19.106Z,22.9
2023-12-08T23:15:16.996Z,21.9
2023-12-08T23:17:16.643Z,26.6
2023-12-08T23:19:16.395Z,25
2023-12-08T23:21:15.965Z,22.9
2023-12-08T23:23:15.477Z,25
2023-12-08T23:25:15.188Z,20.4
2023-12-08T23:27:14.816Z,22
2023-12-08T23:29:14.444Z,23.8
2023-12-08T23:31:14.217Z,22.1
2023-12-08T23:33:13.859Z,21.9
2023-12-08T23:35:13.308Z,22.6
2023-12-08T23:37:12.886Z,20.8
2023-12-08T23:39:12.677Z,20.5
2023-12-08T23:41:12.206Z,22.1
2023-12-08T23:43:11.885Z,20.7
2023-12-08T23:45:11.522Z,18.9
2023-12-08T23:47:11.124Z,19
2023-12-08T23:49:11.008Z,20.3
2023-12-08T23:51:10.383Z,19.4
2023-12-08T23:53:10.034Z,21.7
2023-12-08T23:55:09.664Z,19.5
2023-12-08T23:57:09.368Z,19.6
2023-12-08T23:59:08.879Z,18.8
